createdAt,value
2018-09-23T00:01:34.432Z,12.55
2018-09-23T00:04:03.883Z,12.68
2018-09-23T00:06:32.897Z,12.67
2018-09-23T00:09:01.542Z,12.76
2018-09-23T00:11:30.277Z,12.73
2018-09-23T00:13:58.878Z,12.63
2018-09-23T00:16:28.053Z,12.55
2018-09-23T00:18:57.326Z,12.47
2018-09-23T00:21:26.137Z,12.49
2018-09-23T00:23:54.914Z,12.38
2018-09-23T00:26:23.546Z,12.33
2018-09-23T00:28:52.167Z,12.33
2018-09-23T00:31:20.828Z,12.29
2018-09-23T00:33:49.464Z,12.44
2018-09-23T00:36:18.892Z,12.56
2018-09-23T00:38:48.076Z,12.66
2018-09-23T00:41:16.698Z,12.78
2018-09-23T00:43:45.243Z,12.92
2018-09-23T00:46:13.824Z,12.99
2018-09-23T00:48:42.444Z,12.76
2018-09-23T00:51:11.381Z,12.60
2018-09-23T00:53:40.033Z,12.43
2018-09-23T00:56:08.754Z,12.45
2018-09-23T00:58:37.391Z,12.24
2018-09-23T01:01:06.007Z,12.00
2018-09-23T01:03:34.651Z,11.94
2018-09-23T01:06:04.621Z,12.00
2018-09-23T01:08:34.071Z,12.10
2018-09-23T01:11:02.666Z,11.91
2018-09-23T01:13:31.328Z,11.67
2018-09-23T01:15:59.988Z,11.59
2018-09-23T01:18:28.626Z,11.44
2018-09-23T01:20:57.678Z,11.64
2018-09-23T01:23:26.197Z,11.64
2018-09-23T01:25:54.858Z,11.64
2018-09-23T01:28:23.438Z,11.60
2018-09-23T01:30:52.180Z,11.60
2018-09-23T01:33:20.790Z,11.55
2018-09-23T01:35:49.336Z,11.36
2018-09-23T01:38:17.878Z,11.31
2018-09-23T01:40:46.467Z,11.16
2018-09-23T01:43:15.020Z,11.34
2018-09-23T01:45:43.616Z,11.30
2018-09-23T01:48:12.222Z,11.30
2018-09-23T01:50:40.797Z,11.48
2018-09-23T01:53:09.402Z,11.79
2018-09-23T01:55:37.932Z,11.87
2018-09-23T01:58:07.217Z,11.67
2018-09-23T02:00:35.830Z,11.44
2018-09-23T02:03:04.506Z,11.25
2018-09-23T02:05:33.065Z,11.23
2018-09-23T02:08:01.675Z,11.23
2018-09-23T02:10:30.251Z,11.44
2018-09-23T02:12:58.936Z,11.61
2018-09-23T02:15:27.474Z,11.66
2018-09-23T02:17:56.130Z,11.88
2018-09-23T02:20:24.862Z,11.83
2018-09-23T02:22:53.493Z,11.89
2018-09-23T02:25:21.966Z,12.21
2018-09-23T02:27:50.607Z,12.62
2018-09-23T02:30:19.232Z,12.72
2018-09-23T02:32:47.808Z,12.77
2018-09-23T02:35:16.427Z,13.23
2018-09-23T02:37:45.086Z,13.23
2018-09-23T02:40:13.603Z,13.05
2018-09-23T02:42:42.112Z,12.74
2018-09-23T02:45:10.676Z,12.43
2018-09-23T02:47:39.302Z,12.17
2018-09-23T02:50:07.857Z,12.00
2018-09-23T02:52:36.432Z,11.68
2018-09-23T02:55:04.994Z,11.45
2018-09-23T02:57:34.338Z,11.49
2018-09-23T03:00:03.131Z,11.52
2018-09-23T03:02:31.783Z,11.45
2018-09-23T03:05:00.316Z,11.80
2018-09-23T03:07:28.900Z,11.97
2018-09-23T03:09:57.576Z,11.81
2018-09-23T03:12:26.836Z,11.54
2018-09-23T03:14:55.641Z,11.42
2018-09-23T03:17:24.261Z,11.32
2018-09-23T03:19:53.519Z,11.24
2018-09-23T03:22:22.280Z,11.23
2018-09-23T03:24:50.920Z,11.18
2018-09-23T03:27:19.704Z,11.28
2018-09-23T03:29:48.365Z,11.45
2018-09-23T03:32:17.772Z,11.67
2018-09-23T03:34:46.341Z,11.61
2018-09-23T03:37:15.564Z,11.54
2018-09-23T03:39:44.248Z,11.63
2018-09-23T03:42:13.386Z,11.85
2018-09-23T03:44:42.191Z,11.90
2018-09-23T03:47:11.335Z,11.88
2018-09-23T03:49:40.508Z,11.93
2018-09-23T03:52:09.023Z,12.17
2018-09-23T03:54:37.543Z,12.48
2018-09-23T03:57:06.203Z,12.38
2018-09-23T03:59:34.877Z,12.26
2018-09-23T04:02:04.468Z,12.26
2018-09-23T04:04:33.052Z,12.39
2018-09-23T04:07:01.662Z,12.58
2018-09-23T04:09:30.236Z,12.54
2018-09-23T04:11:58.786Z,12.30
2018-09-23T04:14:27.266Z,12.55
2018-09-23T04:16:55.876Z,12.49
2018-09-23T04:19:24.482Z,12.17
2018-09-23T04:21:53.017Z,12.19
2018-09-23T04:24:22.151Z,12.06
2018-09-23T04:26:50.707Z,11.87
2018-09-23T04:29:19.322Z,11.80
2018-09-23T04:31:47.884Z,11.90
2018-09-23T04:34:16.428Z,12.01
2018-09-23T04:36:44.960Z,12.07
2018-09-23T04:39:13.580Z,11.97
2018-09-23T04:41:42.133Z,12.12
2018-09-23T04:44:10.900Z,12.10
2018-09-23T04:46:40.036Z,12.08
2018-09-23T04:49:08.597Z,12.14
2018-09-23T04:51:37.111Z,12.09
2018-09-23T04:54:05.755Z,11.98
2018-09-23T04:56:34.567Z,11.92
2018-09-23T04:59:03.961Z,11.97
2018-09-23T05:01:32.600Z,12.01
2018-09-23T05:04:01.398Z,12.12
2018-09-23T05:06:30.009Z,12.11
2018-09-23T05:08:58.480Z,12.18
2018-09-23T05:11:27.062Z,12.31
2018-09-23T05:13:55.725Z,12.38
2018-09-23T05:16:25.233Z,12.22
2018-09-23T05:18:53.916Z,12.08
2018-09-23T05:21:22.521Z,12.05
2018-09-23T05:23:51.132Z,12.00
2018-09-23T05:26:19.655Z,12.06
2018-09-23T05:28:48.931Z,12.26
2018-09-23T05:31:17.490Z,12.29
2018-09-23T05:33:46.012Z,12.35
2018-09-23T05:36:15.155Z,12.34
2018-09-23T05:38:44.341Z,12.47
2018-09-23T05:41:12.991Z,12.29
2018-09-23T05:43:41.565Z,12.17
2018-09-23T05:46:10.118Z,12.24
2018-09-23T05:48:38.655Z,12.40
2018-09-23T05:51:07.410Z,12.48
2018-09-23T05:53:35.960Z,12.56
2018-09-23T05:56:05.357Z,12.48
2018-09-23T05:58:34.872Z,12.50
2018-09-23T06:01:04.320Z,12.44
2018-09-23T06:03:33.330Z,12.32
2018-09-23T06:06:01.913Z,12.31
2018-09-23T06:08:30.625Z,12.20
2018-09-23T06:10:59.186Z,12.24
2018-09-23T06:13:27.995Z,12.35
2018-09-23T06:15:56.525Z,12.38
2018-09-23T06:18:25.120Z,12.26
2018-09-23T06:20:53.625Z,12.26
2018-09-23T06:23:22.326Z,12.36
2018-09-23T06:25:50.942Z,12.41
2018-09-23T06:28:19.571Z,12.46
2018-09-23T06:30:48.226Z,12.46
2018-09-23T06:33:17.011Z,12.42
2018-09-23T06:35:45.612Z,12.36
2018-09-23T06:38:14.732Z,12.36
2018-09-23T06:40:43.244Z,12.49
2018-09-23T06:43:11.777Z,12.54
2018-09-23T06:45:40.436Z,12.79
2018-09-23T06:48:09.267Z,13.02
2018-09-23T06:50:38.090Z,13.09
2018-09-23T06:53:07.183Z,13.14
2018-09-23T06:55:36.120Z,12.91
2018-09-23T06:58:04.958Z,12.83
2018-09-23T07:00:34.525Z,12.72
2018-09-23T07:03:03.173Z,12.72
2018-09-23T07:05:31.807Z,12.72
2018-09-23T07:08:00.515Z,12.69
2018-09-23T07:10:29.763Z,12.68
2018-09-23T07:12:58.386Z,12.78
2018-09-23T07:15:27.037Z,12.85
2018-09-23T07:17:55.667Z,12.92
2018-09-23T07:20:24.292Z,13.03
2018-09-23T07:22:52.897Z,13.01
2018-09-23T07:25:21.438Z,12.95
2018-09-23T07:27:50.071Z,13.13
2018-09-23T07:30:18.656Z,13.30
2018-09-23T07:32:47.996Z,13.32
2018-09-23T07:35:17.123Z,13.27
2018-09-23T07:37:45.697Z,13.29
2018-09-23T07:40:14.311Z,13.36
2018-09-23T07:42:43.041Z,13.46
2018-09-23T07:45:11.620Z,13.36
2018-09-23T07:47:41.643Z,13.25
2018-09-23T07:50:11.107Z,13.38
2018-09-23T07:52:39.870Z,13.37
2018-09-23T07:55:08.531Z,13.33
2018-09-23T07:57:37.311Z,13.27
2018-09-23T08:00:05.936Z,13.49
2018-09-23T08:02:35.248Z,13.56
2018-09-23T08:05:03.930Z,13.67
2018-09-23T08:07:33.252Z,13.72
2018-09-23T08:10:02.516Z,13.74
2018-09-23T08:12:31.214Z,13.55
2018-09-23T08:14:59.995Z,13.43
2018-09-23T08:17:29.393Z,13.45
2018-09-23T08:19:58.771Z,13.65
2018-09-23T08:22:27.261Z,13.82
2018-09-23T08:24:56.082Z,13.73
2018-09-23T08:27:24.881Z,13.59
2018-09-23T08:29:53.417Z,13.52
2018-09-23T08:32:22.033Z,13.58
2018-09-23T08:34:50.581Z,13.52
2018-09-23T08:37:19.877Z,13.53
2018-09-23T08:39:48.452Z,13.48
2018-09-23T08:42:17.001Z,13.47
2018-09-23T08:44:45.555Z,13.38
2018-09-23T08:47:14.791Z,13.46
2018-09-23T08:49:43.635Z,13.63
2018-09-23T08:52:12.573Z,13.67
2018-09-23T08:54:41.190Z,13.75
2018-09-23T08:57:09.989Z,13.84
2018-09-23T08:59:38.633Z,13.99
2018-09-23T09:02:07.281Z,14.29
2018-09-23T09:04:35.885Z,14.37
2018-09-23T09:07:05.615Z,14.33
2018-09-23T09:09:34.197Z,14.23
2018-09-23T09:12:02.875Z,14.15
2018-09-23T09:17:50.458Z,14.28
2018-09-23T09:20:19.045Z,14.40
2018-09-23T09:22:47.812Z,14.50
2018-09-23T09:26:36.860Z,14.53
2018-09-23T09:29:05.790Z,14.55
2018-09-23T09:31:34.425Z,14.54
2018-09-23T09:34:03.208Z,14.46
2018-09-23T09:36:31.830Z,14.37
2018-09-23T09:39:00.745Z,14.33
2018-09-23T09:41:29.484Z,14.30
2018-09-23T09:43:58.320Z,14.35
2018-09-23T09:46:27.362Z,14.30
2018-09-23T09:48:56.180Z,14.29
2018-09-23T09:51:24.903Z,14.23
2018-09-23T09:53:53.522Z,14.18
2018-09-23T09:56:22.289Z,13.98
2018-09-23T09:58:51.039Z,13.92
2018-09-23T10:01:20.352Z,13.90
2018-09-23T10:03:49.789Z,13.70
2018-09-23T10:06:18.780Z,13.59
2018-09-23T10:08:48.312Z,13.60
2018-09-23T10:11:17.677Z,13.53
2018-09-23T10:13:46.328Z,13.40
2018-09-23T10:16:14.891Z,13.44
2018-09-23T10:18:43.479Z,13.46
2018-09-23T10:21:12.697Z,13.46
2018-09-23T10:23:41.394Z,13.35
2018-09-23T10:26:10.001Z,13.30
2018-09-23T10:28:38.612Z,13.30
2018-09-23T10:31:07.567Z,13.42
2018-09-23T10:33:36.245Z,13.53
2018-09-23T10:36:06.153Z,13.54
2018-09-23T10:38:34.795Z,13.53
2018-09-23T10:41:03.518Z,13.41
2018-09-23T10:43:32.360Z,13.46
2018-09-23T10:46:01.210Z,13.52
2018-09-23T10:48:30.181Z,13.61
2018-09-23T10:50:58.866Z,13.53
2018-09-23T10:53:27.685Z,13.52
2018-09-23T10:55:56.290Z,13.54
2018-09-23T10:58:25.039Z,13.65
2018-09-23T11:00:53.907Z,13.63
2018-09-23T11:03:22.631Z,13.55
2018-09-23T11:05:51.462Z,13.54
2018-09-23T11:08:20.240Z,13.60
2018-09-23T11:10:48.864Z,13.52
2018-09-23T11:13:18.124Z,13.42
2018-09-23T11:15:46.781Z,13.42
2018-09-23T11:18:15.623Z,13.39
2018-09-23T11:20:44.315Z,13.49
2018-09-23T11:23:13.018Z,13.53
2018-09-23T11:25:41.636Z,13.73
2018-09-23T11:28:10.332Z,13.78
2018-09-23T11:30:39.092Z,13.78
2018-09-23T11:33:08.224Z,13.69
2018-09-23T11:35:37.669Z,13.68
2018-09-23T11:38:06.811Z,13.64
2018-09-23T11:40:36.147Z,13.62
2018-09-23T11:43:04.981Z,13.62
2018-09-23T11:45:33.892Z,13.59
2018-09-23T11:48:03.279Z,13.58
2018-09-23T11:50:32.014Z,13.62
2018-09-23T11:53:01.054Z,13.58
2018-09-23T11:55:30.276Z,13.56
2018-09-23T11:57:59.564Z,13.51
2018-09-23T12:00:28.406Z,13.55
2018-09-23T12:02:57.106Z,13.41
2018-09-23T12:05:25.836Z,13.40
2018-09-23T12:07:54.741Z,13.38
2018-09-23T12:10:23.529Z,13.40
2018-09-23T12:12:52.370Z,13.40
2018-09-23T12:15:21.119Z,13.41
2018-09-23T12:17:49.885Z,13.35
2018-09-23T12:20:19.190Z,13.28
2018-09-23T12:22:47.819Z,13.19
2018-09-23T12:25:16.553Z,13.17
2018-09-23T12:27:45.101Z,13.15
2018-09-23T12:30:14.195Z,13.07
2018-09-23T12:32:43.264Z,13.04
2018-09-23T12:35:11.857Z,13.01
2018-09-23T12:37:40.766Z,12.92
2018-09-23T12:40:09.430Z,12.83
2018-09-23T12:42:37.971Z,12.90
2018-09-23T12:45:06.632Z,13.01
2018-09-23T12:47:35.591Z,13.02
2018-09-23T12:50:04.387Z,13.14
2018-09-23T12:52:33.110Z,13.14
2018-09-23T12:55:01.707Z,13.10
2018-09-23T12:57:30.285Z,13.02
2018-09-23T12:59:58.922Z,13.08
2018-09-23T13:02:28.006Z,13.03
2018-09-23T13:04:57.291Z,13.12
2018-09-23T13:07:26.036Z,13.08
2018-09-23T13:09:55.657Z,12.98
2018-09-23T13:12:24.362Z,13.00
2018-09-23T13:14:52.972Z,13.03
2018-09-23T13:17:22.410Z,13.06
2018-09-23T13:19:51.040Z,13.03
2018-09-23T13:22:20.392Z,13.01
2018-09-23T13:24:49.049Z,13.02
2018-09-23T13:27:18.055Z,13.02
2018-09-23T13:29:46.912Z,12.97
2018-09-23T13:32:16.259Z,12.92
2018-09-23T13:34:44.754Z,13.07
2018-09-23T13:37:13.435Z,13.14
2018-09-23T13:39:41.954Z,13.07
2018-09-23T13:42:10.970Z,13.12
2018-09-23T13:44:39.721Z,13.07
2018-09-23T13:47:08.423Z,13.08
2018-09-23T13:49:37.216Z,12.93
2018-09-23T13:52:05.959Z,13.00
2018-09-23T13:54:34.732Z,13.01
2018-09-23T13:57:03.371Z,12.96
2018-09-23T13:59:31.953Z,12.99
2018-09-23T14:02:00.820Z,12.89
2018-09-23T14:04:29.570Z,12.93
2018-09-23T14:06:58.179Z,12.88
2018-09-23T14:09:27.785Z,12.73
2018-09-23T14:11:56.407Z,12.68
2018-09-23T14:14:25.160Z,12.72
2018-09-23T14:16:53.754Z,12.68
2018-09-23T14:19:22.583Z,12.57
2018-09-23T14:21:51.233Z,12.66
2018-09-23T14:24:19.909Z,12.62
2018-09-23T14:26:48.778Z,12.67
2018-09-23T14:29:18.338Z,12.69
2018-09-23T14:31:46.904Z,12.72
2018-09-23T14:34:16.273Z,12.69
2018-09-23T14:36:44.935Z,12.75
2018-09-23T14:39:13.580Z,12.81
2018-09-23T14:41:42.303Z,12.77
2018-09-23T14:44:10.959Z,12.78
2018-09-23T14:46:39.700Z,12.70
2018-09-23T14:49:08.425Z,12.73
2018-09-23T14:51:37.070Z,12.68
2018-09-23T14:54:05.904Z,12.70
2018-09-23T14:56:34.480Z,12.68
2018-09-23T14:59:03.869Z,12.65
2018-09-23T15:01:32.503Z,12.62
2018-09-23T15:04:01.166Z,12.66
2018-09-23T15:06:29.972Z,12.71
2018-09-23T15:08:58.575Z,12.74
2018-09-23T15:11:29.615Z,12.72
2018-09-23T15:13:58.331Z,12.67
2018-09-23T15:16:27.151Z,12.62
2018-09-23T15:18:56.521Z,12.50
2018-09-23T15:21:25.170Z,12.48
2018-09-23T15:23:53.839Z,12.52
2018-09-23T15:26:22.504Z,12.50
2018-09-23T15:28:52.170Z,12.44
2018-09-23T15:31:21.418Z,12.52
2018-09-23T15:33:50.117Z,12.47
2018-09-23T15:36:18.869Z,12.43
2018-09-23T15:38:47.509Z,12.36
2018-09-23T15:41:16.265Z,12.35
2018-09-23T15:43:44.849Z,12.36
2018-09-23T15:46:13.414Z,12.38
2018-09-23T15:48:41.998Z,12.23
2018-09-23T15:51:10.827Z,12.15
2018-09-23T15:53:40.123Z,12.10
2018-09-23T15:56:09.625Z,12.15
2018-09-23T15:58:38.373Z,12.14
2018-09-23T16:01:07.270Z,11.98
2018-09-23T16:03:35.925Z,12.03
2018-09-23T16:06:04.692Z,11.87
2018-09-23T16:08:33.427Z,11.89
2018-09-23T16:11:02.134Z,11.77
2018-09-23T16:13:30.788Z,11.82
2018-09-23T16:16:00.025Z,11.94
2018-09-23T16:18:28.622Z,12.02
2018-09-23T16:20:57.141Z,11.98
2018-09-23T16:23:25.735Z,11.65
2018-09-23T16:25:54.392Z,11.43
2018-09-23T16:28:23.002Z,11.45
2018-09-23T16:30:51.581Z,11.43
2018-09-23T16:33:20.125Z,11.50
2018-09-23T16:35:48.688Z,11.53
2018-09-23T16:38:17.222Z,11.66
2018-09-23T16:40:45.804Z,11.58
2018-09-23T16:43:14.315Z,11.54
2018-09-23T16:45:42.904Z,11.59
2018-09-23T16:48:11.471Z,11.52
2018-09-23T16:50:40.635Z,11.45
2018-09-23T16:53:11.003Z,11.20
2018-09-23T16:55:39.658Z,11.13
2018-09-23T16:58:08.369Z,11.12
2018-09-23T17:00:37.931Z,11.20
2018-09-23T17:03:06.733Z,11.24
2018-09-23T17:05:35.299Z,11.38
2018-09-23T17:08:04.258Z,11.64
2018-09-23T17:10:32.851Z,11.66
2018-09-23T17:13:02.066Z,11.67
2018-09-23T17:15:30.639Z,11.79
2018-09-23T17:17:59.243Z,11.72
2018-09-23T17:20:28.600Z,11.41
2018-09-23T17:22:57.410Z,11.32
2018-09-23T17:25:26.154Z,11.18
2018-09-23T17:27:55.733Z,11.00
2018-09-23T17:30:25.183Z,10.95
2018-09-23T17:32:54.761Z,10.93
2018-09-23T17:35:23.670Z,10.87
2018-09-23T17:37:52.260Z,10.93
2018-09-23T17:40:20.919Z,10.96
2018-09-23T17:42:49.590Z,11.14
2018-09-23T17:45:18.893Z,11.13
2018-09-23T17:47:47.434Z,11.07
2018-09-23T17:50:16.025Z,11.08
2018-09-23T17:52:44.559Z,11.18
2018-09-23T17:55:13.080Z,11.25
2018-09-23T17:57:41.724Z,11.24
2018-09-23T18:00:11.138Z,11.30
2018-09-23T18:02:39.936Z,11.19
2018-09-23T18:05:09.505Z,11.07
2018-09-23T18:07:38.205Z,10.98
2018-09-23T18:10:06.961Z,10.92
2018-09-23T18:12:35.828Z,10.83
2018-09-23T18:15:04.501Z,10.78
2018-09-23T18:17:33.265Z,10.73
2018-09-23T18:20:01.878Z,10.67
2018-09-23T18:22:31.077Z,10.77
2018-09-23T18:24:59.822Z,10.67
2018-09-23T18:27:28.682Z,10.75
2018-09-23T18:29:57.363Z,10.71
2018-09-23T18:32:26.155Z,10.61
2018-09-23T18:34:54.760Z,10.56
2018-09-23T18:37:23.526Z,10.60
2018-09-23T18:39:52.104Z,10.58
2018-09-23T18:42:20.798Z,10.77
2018-09-23T18:44:49.475Z,10.72
2018-09-23T18:47:18.260Z,10.71
2018-09-23T18:49:46.923Z,10.88
2018-09-23T18:52:16.128Z,10.97
2018-09-23T18:54:50.550Z,11.09
2018-09-23T18:57:19.269Z,11.15
2018-09-23T18:59:47.975Z,11.22
2018-09-23T19:02:16.661Z,11.00
2018-09-23T19:04:46.477Z,10.81
2018-09-23T19:07:15.129Z,10.66
2018-09-23T19:09:44.812Z,10.39
2018-09-23T19:12:13.744Z,10.45
2018-09-23T19:14:42.331Z,10.51
2018-09-23T19:17:11.002Z,10.45
2018-09-23T19:19:44.803Z,10.54
2018-09-23T19:22:18.580Z,10.55
2018-09-23T19:24:47.141Z,10.67
2018-09-23T19:27:15.738Z,10.68
2018-09-23T19:29:44.511Z,10.85
2018-09-23T19:32:13.784Z,11.05
2018-09-23T19:34:42.378Z,11.21
2018-09-23T19:37:10.968Z,11.38
2018-09-23T19:39:39.509Z,11.21
2018-09-23T19:42:08.288Z,11.05
2018-09-23T19:44:36.867Z,10.93
2018-09-23T19:47:05.468Z,10.93
2018-09-23T19:49:34.035Z,10.97
2018-09-23T19:52:02.583Z,10.86
2018-09-23T19:54:31.155Z,10.78
2018-09-23T19:56:59.886Z,10.61
2018-09-23T19:59:28.487Z,10.48
2018-09-23T20:01:57.047Z,10.48
2018-09-23T20:04:25.788Z,10.60
2018-09-23T20:06:55.073Z,10.73
2018-09-23T20:09:23.645Z,10.69
2018-09-23T20:11:52.254Z,10.73
2018-09-23T20:14:21.163Z,10.85
2018-09-23T20:16:50.434Z,11.00
2018-09-23T20:19:19.614Z,11.23
2018-09-23T20:21:48.332Z,11.37
2018-09-23T20:24:17.743Z,10.99
2018-09-23T20:26:46.270Z,10.77
2018-09-23T20:29:14.947Z,10.52
2018-09-23T20:31:43.599Z,10.57
2018-09-23T20:34:12.419Z,10.61
2018-09-23T20:36:41.153Z,10.50
2018-09-23T20:39:10.694Z,10.34
2018-09-23T20:41:39.489Z,10.30
2018-09-23T20:44:08.078Z,10.39
2018-09-23T20:46:36.758Z,10.51
2018-09-23T20:49:05.484Z,10.55
2018-09-23T20:51:34.177Z,10.48
2018-09-23T20:54:02.724Z,10.67
2018-09-23T20:56:31.364Z,10.93
2018-09-23T20:58:59.973Z,10.85
2018-09-23T21:01:28.672Z,10.67
2018-09-23T21:03:57.301Z,10.60
2018-09-23T21:06:25.921Z,10.59
2018-09-23T21:08:54.529Z,10.39
2018-09-23T21:11:23.194Z,10.40
2018-09-23T21:13:51.812Z,10.42
2018-09-23T21:16:20.484Z,10.48
2018-09-23T21:18:49.059Z,10.51
2018-09-23T21:21:17.603Z,10.48
2018-09-23T21:23:46.178Z,10.56
2018-09-23T21:26:14.898Z,10.51
2018-09-23T21:28:43.433Z,10.61
2018-09-23T21:31:12.000Z,10.73
2018-09-23T21:33:40.551Z,10.88
2018-09-23T21:36:09.140Z,11.08
2018-09-23T21:38:37.733Z,11.00
2018-09-23T21:41:06.942Z,10.73
2018-09-23T21:43:35.658Z,10.44
2018-09-23T21:46:04.237Z,10.23
2018-09-23T21:48:32.773Z,10.12
2018-09-23T21:51:01.993Z,10.04
2018-09-23T21:53:30.588Z,10.06
2018-09-23T21:55:59.948Z,10.08
2018-09-23T21:58:28.515Z,10.15
2018-09-23T22:00:57.122Z,10.26
2018-09-23T22:03:26.964Z,10.24
2018-09-23T22:05:55.564Z,10.34
2018-09-23T22:08:24.138Z,10.38
2018-09-23T22:10:52.953Z,10.54
2018-09-23T22:13:21.574Z,10.68
2018-09-23T22:15:50.177Z,10.46
2018-09-23T22:18:18.853Z,10.28
2018-09-23T22:20:47.493Z,10.14
2018-09-23T22:23:16.409Z,10.01
2018-09-23T22:25:44.985Z,9.98
2018-09-23T22:28:13.964Z,9.93
2018-09-23T22:30:42.533Z,10.08
2018-09-23T22:33:11.050Z,9.97
2018-09-23T22:35:40.539Z,9.89
2018-09-23T22:38:09.243Z,10.06
2018-09-23T22:40:38.066Z,10.33
2018-09-23T22:43:07.379Z,10.31
2018-09-23T22:45:36.005Z,10.43
2018-09-23T22:48:04.687Z,10.71
2018-09-23T22:50:33.382Z,10.61
2018-09-23T22:53:03.286Z,10.28
2018-09-23T22:55:31.865Z,10.10
2018-09-23T22:58:00.612Z,9.90
2018-09-23T23:00:29.269Z,9.77
2018-09-23T23:02:57.947Z,9.65
2018-09-23T23:05:26.589Z,9.68
2018-09-23T23:07:55.886Z,9.63
2018-09-23T23:10:24.597Z,9.70
2018-09-23T23:12:53.167Z,9.72
2018-09-23T23:15:22.678Z,9.79
2018-09-23T23:17:51.259Z,9.84
2018-09-23T23:20:19.827Z,10.03
2018-09-23T23:22:48.558Z,10.28
2018-09-23T23:25:17.306Z,10.44
2018-09-23T23:27:45.975Z,10.12
2018-09-23T23:30:15.222Z,9.98
2018-09-23T23:32:43.852Z,9.89
2018-09-23T23:35:12.528Z,9.87
2018-09-23T23:37:41.153Z,9.59
2018-09-23T23:40:10.457Z,9.47
2018-09-23T23:42:39.187Z,9.41
2018-09-23T23:45:07.728Z,9.30
2018-09-23T23:47:37.004Z,9.59
2018-09-23T23:50:05.820Z,9.84
2018-09-23T23:52:34.359Z,10.11
2018-09-23T23:55:02.968Z,10.17
2018-09-23T23:57:31.609Z,10.33
